createdAt,value
2023-04-16T00:01:49.686Z,69.24
2023-04-16T00:06:54.466Z,68.44
2023-04-16T00:11:57.929Z,69.54
2023-04-16T00:17:01.427Z,69.13
2023-04-16T00:22:06.283Z,68.33
2023-04-16T00:27:09.655Z,68.30
2023-04-16T00:32:13.054Z,68.57
2023-04-16T00:37:17.865Z,69.48
2023-04-16T00:42:21.302Z,69.85
2023-04-16T00:47:25.260Z,68.49
2023-04-16T00:52:31.194Z,70.05
2023-04-16T00:57:34.630Z,68.66
2023-04-16T01:02:38.530Z,70.27
2023-04-16T01:07:43.385Z,69.74
2023-04-16T01:12:46.833Z,69.89
2023-04-16T01:17:50.571Z,68.65
2023-04-16T01:22:57.943Z,68.97
2023-04-16T01:28:01.400Z,69.16
2023-04-16T01:33:05.044Z,70.58
2023-04-16T01:38:10.937Z,71.15
2023-04-16T01:48:41.856Z,71.46
2023-04-16T01:53:46.623Z,71.51
2023-04-16T01:58:58.296Z,71.11
2023-04-16T02:04:11.403Z,70.73
2023-04-16T02:09:16.388Z,71.37
2023-04-16T02:14:20.097Z,70.64
2023-04-16T02:19:23.870Z,70.77
2023-04-16T02:24:29.107Z,71.50
2023-04-16T02:29:34.096Z,70.25
2023-04-16T02:34:46.010Z,71.54
2023-04-16T02:39:53.024Z,71.18
2023-04-16T02:44:57.066Z,71.74
2023-04-16T02:50:00.439Z,70.84
2023-04-16T02:55:05.650Z,71.05
2023-04-16T03:00:10.167Z,71.07
2023-04-16T03:05:13.850Z,70.83
2023-04-16T03:10:18.732Z,70.22
2023-04-16T03:15:22.381Z,70.81
2023-04-16T03:20:26.256Z,70.58
2023-04-16T03:25:31.483Z,70.10
2023-04-16T03:30:35.051Z,69.67
2023-04-16T03:35:38.941Z,68.56
2023-04-16T03:40:43.811Z,69.17
2023-04-16T03:45:48.241Z,69.60
2023-04-16T03:50:52.978Z,69.67
2023-04-16T03:55:59.268Z,69.28
2023-04-16T04:01:04.487Z,69.31
2023-04-16T04:06:11.812Z,68.81
2023-04-16T04:11:16.707Z,70.03
2023-04-16T04:16:21.148Z,69.78
2023-04-16T04:21:25.042Z,69.69
2023-04-16T04:26:30.023Z,68.93
2023-04-16T04:31:33.874Z,69.66
2023-04-16T04:36:39.005Z,70.20
2023-04-16T04:41:44.005Z,69.54
2023-04-16T04:46:47.554Z,69.16
2023-04-16T04:51:51.606Z,69.54
2023-04-16T04:56:57.047Z,69.66
2023-04-16T05:02:02.414Z,70.39
2023-04-16T05:07:07.213Z,70.74
2023-04-16T05:12:12.027Z,71.07
2023-04-16T05:17:15.685Z,70.71
2023-04-16T05:22:19.120Z,69.74
2023-04-16T05:27:23.993Z,70.94
2023-04-16T05:32:27.889Z,69.78
2023-04-16T05:37:31.399Z,71.48
2023-04-16T05:42:36.227Z,70.44
2023-04-16T05:47:39.710Z,70.17
2023-04-16T05:52:43.286Z,70.83
2023-04-16T05:57:48.040Z,70.33
2023-04-16T06:02:51.868Z,70.46
2023-04-16T06:07:56.004Z,70.61
2023-04-16T06:13:00.819Z,69.89
2023-04-16T06:18:04.438Z,71.16
2023-04-16T06:23:07.910Z,70.84
2023-04-16T06:28:12.677Z,70.28
2023-04-16T06:33:16.268Z,71.05
2023-04-16T06:38:19.924Z,70.69
2023-04-16T06:43:24.744Z,70.59
2023-04-16T06:48:28.523Z,70.33
2023-04-16T06:53:32.274Z,69.82
2023-04-16T06:58:37.382Z,69.51
2023-04-16T07:03:41.138Z,69.97
2023-04-16T07:08:44.823Z,70.70
2023-04-16T07:13:51.208Z,71.13
2023-04-16T07:18:55.118Z,70.68
2023-04-16T07:23:58.725Z,69.81
2023-04-16T07:29:28.581Z,68.90
2023-04-16T07:34:32.038Z,70.00
2023-04-16T07:39:35.515Z,70.04
2023-04-16T07:44:46.794Z,70.35
2023-04-16T07:49:50.856Z,69.79
2023-04-16T07:54:54.381Z,69.82
2023-04-16T07:59:59.297Z,67.84
2023-04-16T08:05:03.077Z,69.24
2023-04-16T08:10:12.427Z,69.81
2023-04-16T08:15:20.049Z,68.60
2023-04-16T08:20:25.745Z,69.20
2023-04-16T08:25:32.493Z,69.59
2023-04-16T08:30:44.388Z,69.16
2023-04-16T08:35:52.700Z,69.93
2023-04-16T08:41:07.922Z,68.94
2023-04-16T08:46:13.616Z,69.78
2023-04-16T08:51:21.791Z,69.18
2023-04-16T08:56:27.109Z,70.16
2023-04-16T09:02:00.800Z,68.82
2023-04-16T09:07:08.687Z,69.14
2023-04-16T09:12:13.115Z,69.51
2023-04-16T09:17:18.699Z,69.30
2023-04-16T09:22:26.501Z,69.11
2023-04-16T09:27:31.161Z,69.35
2023-04-16T09:32:36.889Z,68.64
2023-04-16T09:37:40.757Z,69.18
2023-04-16T09:42:44.216Z,68.79
2023-04-16T09:47:49.030Z,67.71
2023-04-16T09:52:52.827Z,68.18
2023-04-16T09:58:00.443Z,67.91
2023-04-16T10:03:33.508Z,67.03
2023-04-16T10:08:37.423Z,67.32
2023-04-16T10:13:40.991Z,69.17
2023-04-16T10:18:47.451Z,69.69
2023-04-16T10:23:52.874Z,68.70
2023-04-16T10:28:57.261Z,69.21
2023-04-16T10:34:03.512Z,69.27
2023-04-16T10:39:13.083Z,68.79
2023-04-16T10:44:19.959Z,69.91
2023-04-16T10:49:27.479Z,69.68
2023-04-16T10:54:31.973Z,69.80
2023-04-16T10:59:36.909Z,69.69
2023-04-16T11:04:45.217Z,69.79
2023-04-16T11:09:56.218Z,69.83
2023-04-16T11:15:01.265Z,70.25
2023-04-16T11:20:19.462Z,69.97
2023-04-16T11:25:26.901Z,70.15
2023-04-16T11:30:31.023Z,70.69
2023-04-16T11:35:35.825Z,71.24
2023-04-16T11:40:39.302Z,70.96
2023-04-16T11:46:10.030Z,70.29
2023-04-16T11:51:18.399Z,70.68
2023-04-16T11:56:29.451Z,71.16
2023-04-16T12:01:33.847Z,70.34
2023-04-16T12:06:38.870Z,70.40
2023-04-16T12:11:42.991Z,69.34
2023-04-16T12:16:46.436Z,70.72
2023-04-16T12:21:51.810Z,70.63
2023-04-16T12:26:57.564Z,71.09
2023-04-16T12:32:02.005Z,70.15
2023-04-16T12:37:09.396Z,70.30
2023-04-16T12:42:12.901Z,71.06
2023-04-16T12:47:16.574Z,71.07
2023-04-16T12:52:23.713Z,71.66
2023-04-16T12:57:28.785Z,70.58
2023-04-16T13:02:32.505Z,71.15
2023-04-16T13:07:37.371Z,71.82
2023-04-16T13:12:40.739Z,71.58
2023-04-16T13:17:44.180Z,71.52
2023-04-16T13:22:49.153Z,72.22
2023-04-16T13:27:52.700Z,71.68
2023-04-16T13:32:56.394Z,71.66
2023-04-16T13:38:01.401Z,71.67
2023-04-16T13:43:05.977Z,71.59
2023-04-16T13:48:11.226Z,71.50
2023-04-16T13:53:16.078Z,72.05
2023-04-16T13:58:19.510Z,71.49
2023-04-16T14:03:23.344Z,70.96
2023-04-16T14:08:28.304Z,70.58
2023-04-16T14:13:31.750Z,69.94
2023-04-16T14:18:35.853Z,70.49
2023-04-16T14:23:41.188Z,70.33
2023-04-16T14:28:44.588Z,70.87
2023-04-16T14:33:47.912Z,70.82
2023-04-16T14:38:54.279Z,71.03
2023-04-16T14:43:57.763Z,71.32
2023-04-16T14:49:01.379Z,71.30
2023-04-16T14:54:06.205Z,71.28
2023-04-16T14:59:09.785Z,70.44
2023-04-16T15:04:13.722Z,70.83
2023-04-16T15:09:18.778Z,71.26
2023-04-16T15:14:22.481Z,70.94
2023-04-16T15:19:29.289Z,71.53
2023-04-16T15:24:34.115Z,71.81
2023-04-16T15:29:37.666Z,71.89
2023-04-16T15:34:41.459Z,72.33
2023-04-16T15:39:46.440Z,71.60
2023-04-16T15:44:51.692Z,71.15
2023-04-16T15:49:55.402Z,71.40
2023-04-16T15:55:02.252Z,71.90
2023-04-16T16:00:13.827Z,72.24
2023-04-16T16:05:18.064Z,71.37
2023-04-16T16:10:22.799Z,71.51
2023-04-16T16:15:26.405Z,70.73
2023-04-16T16:20:29.958Z,71.16
2023-04-16T16:25:36.934Z,70.83
2023-04-16T16:30:40.709Z,71.86
2023-04-16T16:35:44.179Z,71.16
2023-04-16T16:40:48.977Z,71.15
2023-04-16T16:45:52.507Z,71.61
2023-04-16T16:50:56.080Z,71.36
2023-04-16T16:56:00.934Z,71.22
2023-04-16T17:01:04.370Z,71.62
2023-04-16T17:06:09.124Z,71.42
2023-04-16T17:11:14.444Z,71.31
2023-04-16T17:16:17.891Z,71.08
2023-04-16T17:21:21.639Z,71.10
2023-04-16T17:26:27.239Z,70.45
2023-04-16T17:31:31.056Z,70.47
2023-04-16T17:36:34.466Z,70.67
2023-04-16T17:41:39.351Z,70.80
2023-04-16T17:46:42.763Z,70.75
2023-04-16T17:51:46.369Z,70.67
2023-04-16T17:56:51.332Z,70.82
2023-04-16T18:06:58.349Z,70.56
2023-04-16T18:12:03.211Z,70.46
2023-04-16T18:17:06.868Z,70.70
2023-04-16T18:22:11.047Z,69.76
2023-04-16T18:27:16.057Z,70.55
2023-04-16T18:32:19.510Z,70.72
2023-04-16T18:37:23.134Z,70.20
2023-04-16T18:42:29.417Z,70.13
2023-04-16T18:47:34.687Z,69.99
2023-04-16T18:52:38.399Z,70.02
2023-04-16T18:57:44.416Z,70.07
2023-04-16T19:02:47.964Z,70.20
2023-04-16T19:07:51.504Z,70.15
2023-04-16T19:12:57.863Z,70.04
2023-04-16T19:18:01.423Z,69.23
2023-04-16T19:23:06.025Z,69.48
2023-04-16T19:28:10.802Z,70.25
2023-04-16T19:33:14.469Z,70.25
2023-04-16T19:38:17.984Z,70.61
2023-04-16T19:43:22.807Z,70.68
2023-04-16T19:48:26.187Z,70.18
2023-04-16T19:53:29.548Z,70.35
2023-04-16T19:58:35.455Z,70.31
2023-04-16T20:03:39.213Z,70.48
2023-04-16T20:08:44.544Z,70.43
2023-04-16T20:13:52.084Z,70.67
2023-04-16T20:18:55.475Z,71.01
2023-04-16T20:24:00.508Z,70.73
2023-04-16T20:29:05.405Z,70.31
2023-04-16T20:34:09.274Z,70.74
2023-04-16T20:39:12.929Z,70.78
2023-04-16T20:44:18.838Z,70.21
2023-04-16T20:49:22.456Z,70.34
2023-04-16T20:54:26.090Z,70.16
2023-04-16T20:59:33.719Z,70.03
2023-04-16T21:04:37.145Z,70.01
2023-04-16T21:09:40.960Z,69.57
2023-04-16T21:14:46.008Z,69.75
2023-04-16T21:19:49.366Z,69.47
2023-04-16T21:24:52.888Z,69.97
2023-04-16T21:29:57.744Z,69.19
2023-04-16T21:35:01.436Z,69.45
2023-04-16T21:40:06.033Z,69.43
2023-04-16T21:45:11.531Z,69.43
2023-04-16T21:50:15.082Z,69.42
2023-04-16T21:55:18.978Z,69.47
2023-04-16T22:00:47.974Z,69.18
2023-04-16T22:05:51.600Z,69.26
2023-04-16T22:10:58.312Z,69.22
2023-04-16T22:16:03.993Z,69.42
2023-04-16T22:21:07.575Z,68.80
2023-04-16T22:26:12.745Z,69.04
2023-04-16T22:31:17.467Z,69.17
2023-04-16T22:36:21.027Z,68.94
2023-04-16T22:41:24.397Z,69.18
2023-04-16T22:46:29.296Z,69.36
2023-04-16T22:51:32.750Z,69.12
2023-04-16T22:56:36.180Z,69.19
2023-04-16T23:01:42.173Z,69.35
2023-04-16T23:06:46.234Z,68.62
2023-04-16T23:11:49.584Z,69.33
2023-04-16T23:17:29.583Z,68.83
2023-04-16T23:22:33.009Z,68.80
2023-04-16T23:27:36.856Z,69.01
2023-04-16T23:32:41.788Z,69.31
2023-04-16T23:37:45.276Z,69.06
2023-04-16T23:42:50.045Z,69.00
2023-04-16T23:47:55.067Z,69.51
2023-04-16T23:52:58.566Z,68.75
2023-04-16T23:58:02.077Z,69.27
